PWSweather.com
Personal Weather Stations
Station Observations
MAKAWAOWX1
Up Country Maui, Makawao, HI 96768

Up Country MauiMakawao, HI 96768

Lat: 20.856944, Lon: -156.3149667

Elevation: 1500

Station Type: Davis Vantage Pro

www.dwayneyamato@hawaiiantel.net

High Low Average
Temperature 71.9°F22.2°F 62.1°F16.7°F 65.3°F18.5°F
Dew Point 64.2°F17.9°F 59.5°F15.3°F 61.5°F16.4°F
Winds 11.7 mph ENE18.8 mph ENE Calm Calm 5.3 mph 8.5 mph
Wind Gusts 18.0 mph29.0 mph -- 8.5 mph13.7 mph
Humidity 96% 71% 88%
Pressure 30.00 in1015.90 in 29.90 in1012.50 in -
Precipitation 0.06 in1.50 in - -
Hour Temp Dew Point Humidity Winds Wind Gusts Pressure Precip Precip Rate Daily Precip Total
12:00 AM 62.7°F17.1°C 61.2°F16.2°C 95% Calm Calm -- 29.92 in1013.2 mb 0.00 in0.0 mm 0.00 in/hr0.0 mm/hr 0.00 in0.0 mm
12:10 AM 62.7°F17.1°C 61.2°F16.2°C 95% 3.0 mph E4.8 kmh E 7.0 mph11.3 kmh 29.92 in1013.2 mb 0.01 in0.3 mm 0.06 in/hr1.5 mm/hr 0.01 in0.3 mm
12:20 AM 62.7°F17.1°C 61.2°F16.2°C 95% 1.1 mph ENE1.8 kmh ENE 2.0 mph3.2 kmh 29.91 in1012.9 mb 0.00 in0.0 mm 0.00 in/hr0.0 mm/hr 0.01 in0.3 mm
12:30 AM 62.7°F17.1°C 61.2°F16.2°C 95% 4.7 mph E7.6 kmh E 7.0 mph11.3 kmh 29.91 in1012.9 mb 0.00 in0.0 mm 0.00 in/hr0.0 mm/hr 0.01 in0.3 mm
12:40 AM 62.5°F16.9°C 61.1°F16.2°C 95% 3.0 mph E4.8 kmh E 4.0 mph6.4 kmh 29.91 in1012.9 mb 0.00 in0.0 mm 0.00 in/hr0.0 mm/hr 0.01 in0.3 mm
12:50 AM 62.5°F16.9°C 61.0°F16.1°C 95% 2.8 mph E4.5 kmh E 6.0 mph9.7 kmh 29.91 in1012.9 mb 0.00 in0.0 mm 0.00 in/hr0.0 mm/hr 0.01 in0.3 mm
01:00 AM 62.3°F16.8°C 60.9°F16.1°C 95% 3.9 mph E6.3 kmh E 5.0 mph8.0 kmh 29.91 in1012.9 mb 0.00 in0.0 mm 0.00 in/hr0.0 mm/hr 0.01 in0.3 mm
01:10 AM 62.3°F16.8°C 60.8°F16.0°C 95% 3.4 mph E5.5 kmh E 5.0 mph8.0 kmh 29.91 in1012.9 mb 0.00 in0.0 mm 0.00 in/hr0.0 mm/hr 0.01 in0.3 mm
01:20 AM 62.4°F16.9°C 61.0°F16.1°C 95% 2.8 mph E4.5 kmh E 3.0 mph4.8 kmh 29.91 in1012.9 mb 0.00 in0.0 mm 0.00 in/hr0.0 mm/hr 0.01 in0.3 mm
01:30 AM 62.5°F16.9°C 61.0°F16.1°C 95% Calm Calm -- 29.91 in1012.9 mb 0.00 in0.0 mm 0.00 in/hr0.0 mm/hr 0.01 in0.3 mm
01:40 AM 62.6°F17.0°C 61.1°F16.2°C 95% 3.2 mph E5.1 kmh E 5.0 mph8.0 kmh 29.91 in1012.9 mb 0.00 in0.0 mm 0.00 in/hr0.0 mm/hr 0.01 in0.3 mm
01:50 AM 62.6°F17.0°C 61.1°F16.2°C 95% 0.7 mph E1.1 kmh E 7.0 mph11.3 kmh 29.91 in1012.9 mb 0.00 in0.0 mm 0.00 in/hr0.0 mm/hr 0.01 in0.3 mm
02:00 AM 62.4°F16.9°C 61.0°F16.1°C 95% 0.2 mph E0.3 kmh E 2.0 mph3.2 kmh 29.90 in1012.5 mb 0.00 in0.0 mm 0.00 in/hr0.0 mm/hr 0.01 in0.3 mm
02:10 AM 62.3°F16.8°C 60.8°F16.0°C 95% Calm Calm -- 29.90 in1012.5 mb 0.00 in0.0 mm 0.00 in/hr0.0 mm/hr 0.01 in0.3 mm
02:20 AM 62.4°F16.9°C 60.9°F16.1°C 95% 2.7 mph ENE4.3 kmh ENE 5.0 mph8.0 kmh 29.91 in1012.9 mb 0.00 in0.0 mm 0.00 in/hr0.0 mm/hr 0.01 in0.3 mm
02:30 AM 62.5°F16.9°C 61.0°F16.1°C 95% 4.0 mph ENE6.4 kmh ENE 8.0 mph12.9 kmh 29.91 in1012.9 mb 0.00 in0.0 mm 0.00 in/hr0.0 mm/hr 0.01 in0.3 mm
02:40 AM 62.6°F17.0°C 61.1°F16.2°C 95% 0.6 mph E1.0 kmh E 7.0 mph11.3 kmh 29.91 in1012.9 mb 0.00 in0.0 mm 0.00 in/hr0.0 mm/hr 0.01 in0.3 mm
02:50 AM 62.7°F17.1°C 61.2°F16.2°C 95% 1.6 mph E2.6 kmh E 5.0 mph8.0 kmh 29.90 in1012.5 mb 0.00 in0.0 mm 0.00 in/hr0.0 mm/hr 0.01 in0.3 mm
03:00 AM 62.7°F17.1°C 61.2°F16.2°C 95% 1.8 mph E2.9 kmh E 9.0 mph14.5 kmh 29.90 in1012.5 mb 0.00 in0.0 mm 0.00 in/hr0.0 mm/hr 0.01 in0.3 mm
03:10 AM 62.6°F17.0°C 60.8°F16.0°C 94% 1.6 mph E2.6 kmh E 5.0 mph8.0 kmh 29.90 in1012.5 mb 0.00 in0.0 mm 0.00 in/hr0.0 mm/hr 0.01 in0.3 mm
03:20 AM 62.5°F16.9°C 60.7°F15.9°C 94% 1.4 mph E2.3 kmh E 4.0 mph6.4 kmh 29.90 in1012.5 mb 0.00 in0.0 mm 0.00 in/hr0.0 mm/hr 0.01 in0.3 mm
03:30 AM 62.3°F16.8°C 60.5°F15.8°C 94% 3.1 mph E5.0 kmh E 4.0 mph6.4 kmh 29.90 in1012.5 mb 0.00 in0.0 mm 0.00 in/hr0.0 mm/hr 0.01 in0.3 mm
03:40 AM 62.1°F16.7°C 60.4°F15.8°C 94% Calm Calm -- 29.90 in1012.5 mb 0.00 in0.0 mm 0.00 in/hr0.0 mm/hr 0.01 in0.3 mm
03:50 AM 62.1°F16.7°C 60.4°F15.8°C 94% Calm Calm 1.0 mph1.6 kmh 29.91 in1012.9 mb 0.00 in0.0 mm 0.00 in/hr0.0 mm/hr 0.01 in0.3 mm
04:00 AM 62.3°F16.8°C 60.8°F16.0°C 95% 2.3 mph E3.7 kmh E 4.0 mph6.4 kmh 29.91 in1012.9 mb 0.00 in0.0 mm 0.00 in/hr0.0 mm/hr 0.01 in0.3 mm
04:10 AM 62.5°F16.9°C 61.0°F16.1°C 95% Calm Calm -- 29.91 in1012.9 mb 0.00 in0.0 mm 0.00 in/hr0.0 mm/hr 0.01 in0.3 mm
04:20 AM 62.5°F16.9°C 61.0°F16.1°C 95% 2.9 mph E4.7 kmh E 4.0 mph6.4 kmh 29.91 in1012.9 mb 0.01 in0.3 mm 0.06 in/hr1.5 mm/hr 0.02 in0.5 mm
04:30 AM 62.5°F16.9°C 61.0°F16.1°C 95% 2.3 mph E3.7 kmh E 4.0 mph6.4 kmh 29.92 in1013.2 mb 0.00 in0.0 mm 0.00 in/hr0.0 mm/hr 0.02 in0.5 mm
04:40 AM 62.5°F16.9°C 61.0°F16.1°C 95% 3.7 mph E6.0 kmh E 5.0 mph8.0 kmh 29.92 in1013.2 mb 0.00 in0.0 mm 0.00 in/hr0.0 mm/hr 0.02 in0.5 mm
04:50 AM 62.5°F16.9°C 61.3°F16.3°C 96% 3.8 mph E6.1 kmh E 5.0 mph8.0 kmh 29.92 in1013.2 mb 0.00 in0.0 mm 0.00 in/hr0.0 mm/hr 0.02 in0.5 mm
05:00 AM 62.5°F16.9°C 61.3°F16.3°C 96% Calm Calm -- 29.92 in1013.2 mb 0.00 in0.0 mm 0.00 in/hr0.0 mm/hr 0.02 in0.5 mm
05:10 AM 62.5°F16.9°C 61.3°F16.3°C 96% Calm Calm -- 29.93 in1013.5 mb 0.00 in0.0 mm 0.00 in/hr0.0 mm/hr 0.02 in0.5 mm
05:20 AM 62.5°F16.9°C 61.4°F16.3°C 96% 3.6 mph ENE5.8 kmh ENE 7.0 mph11.3 kmh 29.93 in1013.5 mb 0.00 in0.0 mm 0.00 in/hr0.0 mm/hr 0.02 in0.5 mm
05:30 AM 62.6°F17.0°C 61.4°F16.3°C 96% 2.7 mph ENE4.3 kmh ENE 5.0 mph8.0 kmh 29.94 in1013.9 mb 0.00 in0.0 mm 0.00 in/hr0.0 mm/hr 0.02 in0.5 mm
05:40 AM 62.6°F17.0°C 61.4°F16.3°C 96% 3.7 mph E6.0 kmh E 7.0 mph11.3 kmh 29.94 in1013.9 mb 0.00 in0.0 mm 0.00 in/hr0.0 mm/hr 0.02 in0.5 mm
05:50 AM 62.6°F17.0°C 61.4°F16.3°C 96% 2.5 mph ENE4.0 kmh ENE 8.0 mph12.9 kmh 29.94 in1013.9 mb 0.00 in0.0 mm 0.00 in/hr0.0 mm/hr 0.02 in0.5 mm
06:00 AM 62.6°F17.0°C 61.4°F16.3°C 96% 0.1 mph ENE0.2 kmh ENE 2.0 mph3.2 kmh 29.95 in1014.2 mb 0.00 in0.0 mm 0.00 in/hr0.0 mm/hr 0.02 in0.5 mm
06:10 AM 62.6°F17.0°C 61.4°F16.3°C 96% 4.6 mph NE7.4 kmh NE 8.0 mph12.9 kmh 29.95 in1014.2 mb 0.00 in0.0 mm 0.00 in/hr0.0 mm/hr 0.02 in0.5 mm
06:20 AM 62.5°F16.9°C 61.3°F16.3°C 96% 4.5 mph NE7.2 kmh NE 8.0 mph12.9 kmh 29.95 in1014.2 mb 0.00 in0.0 mm 0.00 in/hr0.0 mm/hr 0.02 in0.5 mm
06:30 AM 62.4°F16.9°C 61.2°F16.2°C 96% 4.7 mph ENE7.6 kmh ENE 9.0 mph14.5 kmh 29.96 in1014.6 mb 0.00 in0.0 mm 0.00 in/hr0.0 mm/hr 0.02 in0.5 mm
06:40 AM 62.3°F16.8°C 61.1°F16.2°C 96% 4.2 mph ENE6.8 kmh ENE 5.0 mph8.0 kmh 29.96 in1014.6 mb 0.00 in0.0 mm 0.00 in/hr0.0 mm/hr 0.02 in0.5 mm
06:50 AM 62.3°F16.8°C 61.1°F16.2°C 96% 3.4 mph ENE5.5 kmh ENE 5.0 mph8.0 kmh 29.96 in1014.6 mb 0.01 in0.3 mm 0.06 in/hr1.5 mm/hr 0.03 in0.8 mm
07:00 AM 62.4°F16.9°C 61.2°F16.2°C 96% 3.6 mph ENE5.8 kmh ENE 7.0 mph11.3 kmh 29.96 in1014.6 mb 0.01 in0.3 mm 0.01 in/hr0.3 mm/hr 0.03 in0.8 mm
07:10 AM 62.5°F16.9°C 61.3°F16.3°C 96% 5.7 mph NE9.2 kmh NE 6.0 mph9.7 kmh 29.97 in1014.9 mb 0.00 in0.0 mm 0.00 in/hr0.0 mm/hr 0.03 in0.8 mm
07:20 AM 62.6°F17.0°C 61.4°F16.3°C 96% 4.2 mph NE6.8 kmh NE 7.0 mph11.3 kmh 29.97 in1014.9 mb 0.00 in0.0 mm 0.00 in/hr0.0 mm/hr 0.03 in0.8 mm
07:30 AM 62.7°F17.1°C 61.5°F16.4°C 96% 4.8 mph ENE7.7 kmh ENE 8.0 mph12.9 kmh 29.97 in1014.9 mb 0.00 in0.0 mm 0.00 in/hr0.0 mm/hr 0.03 in0.8 mm
07:40 AM 62.7°F17.1°C 61.6°F16.4°C 96% 3.3 mph ENE5.3 kmh ENE 8.0 mph12.9 kmh 29.97 in1014.9 mb 0.00 in0.0 mm 0.00 in/hr0.0 mm/hr 0.03 in0.8 mm
07:50 AM 62.9°F17.2°C 61.7°F16.5°C 96% 2.8 mph ENE4.5 kmh ENE 4.0 mph6.4 kmh 29.98 in1015.2 mb 0.00 in0.0 mm 0.00 in/hr0.0 mm/hr 0.03 in0.8 mm
08:00 AM 63.1°F17.3°C 61.9°F16.6°C 96% 3.7 mph ENE6.0 kmh ENE 5.0 mph8.0 kmh 29.98 in1015.2 mb 0.00 in0.0 mm 0.00 in/hr0.0 mm/hr 0.03 in0.8 mm
08:10 AM 63.3°F17.4°C 62.2°F16.8°C 96% 3.7 mph ENE6.0 kmh ENE 5.0 mph8.0 kmh 29.98 in1015.2 mb 0.00 in0.0 mm 0.00 in/hr0.0 mm/hr 0.03 in0.8 mm
08:20 AM 63.4°F17.4°C 62.2°F16.8°C 96% 4.2 mph NE6.8 kmh NE 7.0 mph11.3 kmh 29.98 in1015.2 mb 0.01 in0.3 mm 0.06 in/hr1.5 mm/hr 0.04 in1.0 mm
08:30 AM 63.3°F17.4°C 62.1°F16.7°C 96% 5.6 mph ENE9.0 kmh ENE 9.0 mph14.5 kmh 29.98 in1015.2 mb 0.00 in0.0 mm 0.00 in/hr0.0 mm/hr 0.04 in1.0 mm
08:40 AM 63.7°F17.6°C 62.5°F16.9°C 96% 6.8 mph NE10.9 kmh NE 8.0 mph12.9 kmh 29.98 in1015.2 mb 0.00 in0.0 mm 0.00 in/hr0.0 mm/hr 0.04 in1.0 mm
08:50 AM 64.1°F17.8°C 62.9°F17.2°C 96% 4.3 mph NE6.9 kmh NE 6.0 mph9.7 kmh 29.99 in1015.6 mb 0.00 in0.0 mm 0.00 in/hr0.0 mm/hr 0.04 in1.0 mm
09:00 AM 64.5°F18.1°C 63.3°F17.4°C 96% 5.8 mph NE9.3 kmh NE 11.0 mph17.7 kmh 29.99 in1015.6 mb 0.00 in0.0 mm 0.00 in/hr0.0 mm/hr 0.04 in1.0 mm
09:10 AM 64.7°F18.2°C 63.5°F17.5°C 96% 5.0 mph NNE8.0 kmh NNE 9.0 mph14.5 kmh 29.99 in1015.6 mb 0.00 in0.0 mm 0.00 in/hr0.0 mm/hr 0.04 in1.0 mm
09:20 AM 64.9°F18.3°C 63.4°F17.4°C 95% 5.3 mph NE8.5 kmh NE 13.0 mph20.9 kmh 30.00 in1015.9 mb 0.00 in0.0 mm 0.00 in/hr0.0 mm/hr 0.04 in1.0 mm
09:30 AM 64.6°F18.1°C 63.1°F17.3°C 95% 6.7 mph ENE10.8 kmh ENE 7.0 mph11.3 kmh 30.00 in1015.9 mb 0.00 in0.0 mm 0.00 in/hr0.0 mm/hr 0.04 in1.0 mm
09:40 AM 64.7°F18.2°C 63.2°F17.3°C 95% 7.2 mph ENE11.6 kmh ENE 9.0 mph14.5 kmh 30.00 in1015.9 mb 0.00 in0.0 mm 0.00 in/hr0.0 mm/hr 0.04 in1.0 mm
09:50 AM 65.5°F18.6°C 64.0°F17.8°C 95% 4.9 mph NE7.9 kmh NE 8.0 mph12.9 kmh 30.00 in1015.9 mb 0.00 in0.0 mm 0.00 in/hr0.0 mm/hr 0.04 in1.0 mm
10:00 AM 66.3°F19.1°C 64.2°F17.9°C 93% 9.5 mph NE15.3 kmh NE 11.0 mph17.7 kmh 30.00 in1015.9 mb 0.00 in0.0 mm 0.00 in/hr0.0 mm/hr 0.04 in1.0 mm
10:10 AM 66.6°F19.2°C 63.9°F17.7°C 91% 8.4 mph ENE13.5 kmh ENE 11.0 mph17.7 kmh 29.99 in1015.6 mb 0.00 in0.0 mm 0.00 in/hr0.0 mm/hr 0.04 in1.0 mm
10:20 AM 66.8°F19.3°C 63.8°F17.7°C 90% 8.2 mph NE13.2 kmh NE 11.0 mph17.7 kmh 29.99 in1015.6 mb 0.00 in0.0 mm 0.00 in/hr0.0 mm/hr 0.04 in1.0 mm
10:30 AM 67.1°F19.5°C 63.4°F17.4°C 88% 6.9 mph ENE11.1 kmh ENE 15.0 mph24.1 kmh 29.99 in1015.6 mb 0.00 in0.0 mm 0.00 in/hr0.0 mm/hr 0.04 in1.0 mm
10:40 AM 67.7°F19.8°C 63.7°F17.6°C 87% 7.8 mph ENE12.6 kmh ENE 11.0 mph17.7 kmh 29.99 in1015.6 mb 0.00 in0.0 mm 0.00 in/hr0.0 mm/hr 0.04 in1.0 mm
10:50 AM 68.2°F20.1°C 63.5°F17.5°C 85% 8.4 mph ENE13.5 kmh ENE 14.0 mph22.5 kmh 29.98 in1015.2 mb 0.00 in0.0 mm 0.00 in/hr0.0 mm/hr 0.04 in1.0 mm
11:00 AM 68.2°F20.1°C 64.2°F17.9°C 87% 7.0 mph NE11.3 kmh NE 8.0 mph12.9 kmh 29.98 in1015.2 mb 0.01 in0.3 mm 0.01 in/hr0.3 mm/hr 0.05 in1.3 mm
11:10 AM 68.7°F20.4°C 64.0°F17.8°C 85% 2.9 mph NE4.7 kmh NE 7.0 mph11.3 kmh 29.97 in1014.9 mb 0.00 in0.0 mm 0.00 in/hr0.0 mm/hr 0.05 in1.3 mm
11:20 AM 69.5°F20.8°C 63.4°F17.4°C 81% 7.4 mph E11.9 kmh E 10.0 mph16.1 kmh 29.97 in1014.9 mb 0.00 in0.0 mm 0.00 in/hr0.0 mm/hr 0.05 in1.3 mm
11:30 AM 70.0°F21.1°C 64.2°F17.9°C 82% 10.3 mph ENE16.6 kmh ENE 13.0 mph20.9 kmh 29.96 in1014.6 mb 0.00 in0.0 mm 0.00 in/hr0.0 mm/hr 0.05 in1.3 mm
11:40 AM 70.0°F21.1°C 63.6°F17.6°C 80% 9.7 mph E15.6 kmh E 14.0 mph22.5 kmh 29.96 in1014.6 mb 0.00 in0.0 mm 0.00 in/hr0.0 mm/hr 0.05 in1.3 mm
11:50 AM 70.1°F21.2°C 62.9°F17.2°C 78% 11.7 mph ENE18.8 kmh ENE 14.0 mph22.5 kmh 29.96 in1014.6 mb 0.00 in0.0 mm 0.00 in/hr0.0 mm/hr 0.05 in1.3 mm
12:00 PM 69.4°F20.8°C 62.6°F17.0°C 79% 9.3 mph ENE15.0 kmh ENE 12.0 mph19.3 kmh 29.95 in1014.2 mb 0.00 in0.0 mm 0.00 in/hr0.0 mm/hr 0.05 in1.3 mm
12:10 PM 69.1°F20.6°C 62.3°F16.8°C 79% 10.6 mph NE17.1 kmh NE 16.0 mph25.7 kmh 29.95 in1014.2 mb 0.00 in0.0 mm 0.00 in/hr0.0 mm/hr 0.05 in1.3 mm
12:20 PM 69.4°F20.8°C 63.0°F17.2°C 80% 6.2 mph ENE10.0 kmh ENE 12.0 mph19.3 kmh 29.95 in1014.2 mb 0.00 in0.0 mm 0.00 in/hr0.0 mm/hr 0.05 in1.3 mm
12:30 PM 69.6°F20.9°C 62.4°F16.9°C 78% 7.5 mph E12.1 kmh E 11.0 mph17.7 kmh 29.95 in1014.2 mb 0.00 in0.0 mm 0.00 in/hr0.0 mm/hr 0.05 in1.3 mm
12:40 PM 70.0°F21.1°C 62.5°F16.9°C 77% 7.9 mph E12.7 kmh E 11.0 mph17.7 kmh 29.94 in1013.9 mb 0.00 in0.0 mm 0.00 in/hr0.0 mm/hr 0.05 in1.3 mm
12:50 PM 70.3°F21.3°C 62.3°F16.8°C 76% 9.5 mph E15.3 kmh E 14.0 mph22.5 kmh 29.94 in1013.9 mb 0.00 in0.0 mm 0.00 in/hr0.0 mm/hr 0.05 in1.3 mm
01:00 PM 70.8°F21.6°C 62.1°F16.7°C 74% 9.9 mph E15.9 kmh E 14.0 mph22.5 kmh 29.93 in1013.5 mb 0.00 in0.0 mm 0.00 in/hr0.0 mm/hr 0.05 in1.3 mm
01:10 PM 71.3°F21.8°C 63.3°F17.4°C 76% 6.6 mph NE10.6 kmh NE 12.0 mph19.3 kmh 29.93 in1013.5 mb 0.00 in0.0 mm 0.00 in/hr0.0 mm/hr 0.05 in1.3 mm
01:20 PM 71.4°F21.9°C 62.6°F17.0°C 74% 10.1 mph ENE16.3 kmh ENE 18.0 mph29.0 kmh 29.92 in1013.2 mb 0.00 in0.0 mm 0.00 in/hr0.0 mm/hr 0.05 in1.3 mm
01:30 PM 71.4°F21.9°C 62.6°F17.0°C 74% 9.9 mph NE15.9 kmh NE 12.0 mph19.3 kmh 29.92 in1013.2 mb 0.00 in0.0 mm 0.00 in/hr0.0 mm/hr 0.05 in1.3 mm
01:40 PM 71.3°F21.8°C 62.2°F16.8°C 73% 10.2 mph ENE16.4 kmh ENE 13.0 mph20.9 kmh 29.92 in1013.2 mb 0.00 in0.0 mm 0.00 in/hr0.0 mm/hr 0.05 in1.3 mm
01:50 PM 70.8°F21.6°C 62.5°F16.9°C 75% 10.3 mph NE16.6 kmh NE 14.0 mph22.5 kmh 29.92 in1013.2 mb 0.00 in0.0 mm 0.00 in/hr0.0 mm/hr 0.05 in1.3 mm
02:00 PM 70.6°F21.4°C 61.9°F16.6°C 74% 10.3 mph NNE16.6 kmh NNE 13.0 mph20.9 kmh 29.92 in1013.2 mb 0.00 in0.0 mm 0.00 in/hr0.0 mm/hr 0.05 in1.3 mm
02:10 PM 70.8°F21.6°C 62.9°F17.2°C 76% 3.5 mph E5.6 kmh E 9.0 mph14.5 kmh 29.92 in1013.2 mb 0.00 in0.0 mm 0.00 in/hr0.0 mm/hr 0.05 in1.3 mm
02:20 PM 70.9°F21.6°C 62.2°F16.8°C 74% 8.7 mph NE14.0 kmh NE 13.0 mph20.9 kmh 29.92 in1013.2 mb 0.00 in0.0 mm 0.00 in/hr0.0 mm/hr 0.05 in1.3 mm
02:30 PM 71.0°F21.7°C 62.7°F17.1°C 75% 5.8 mph NE9.3 kmh NE 7.0 mph11.3 kmh 29.92 in1013.2 mb 0.00 in0.0 mm 0.00 in/hr0.0 mm/hr 0.05 in1.3 mm
02:40 PM 71.6°F22.0°C 62.5°F16.9°C 73% 6.6 mph ENE10.6 kmh ENE 14.0 mph22.5 kmh 29.91 in1012.9 mb 0.00 in0.0 mm 0.00 in/hr0.0 mm/hr 0.05 in1.3 mm
02:50 PM 71.9°F22.2°C 62.4°F16.9°C 72% 4.5 mph ENE7.2 kmh ENE 7.0 mph11.3 kmh 29.92 in1013.2 mb 0.00 in0.0 mm 0.00 in/hr0.0 mm/hr 0.05 in1.3 mm
03:00 PM 71.9°F22.2°C 62.0°F16.7°C 71% 7.7 mph ENE12.4 kmh ENE 14.0 mph22.5 kmh 29.92 in1013.2 mb 0.00 in0.0 mm 0.00 in/hr0.0 mm/hr 0.05 in1.3 mm
03:10 PM 71.8°F22.1°C 62.2°F16.8°C 72% 8.8 mph NE14.2 kmh NE 11.0 mph17.7 kmh 29.92 in1013.2 mb 0.00 in0.0 mm 0.00 in/hr0.0 mm/hr 0.05 in1.3 mm
03:20 PM 71.5°F21.9°C 62.8°F17.1°C 74% 7.9 mph E12.7 kmh E 14.0 mph22.5 kmh 29.92 in1013.2 mb 0.00 in0.0 mm 0.00 in/hr0.0 mm/hr 0.05 in1.3 mm
03:30 PM 71.7°F22.1°C 62.9°F17.2°C 74% 4.3 mph E6.9 kmh E 12.0 mph19.3 kmh 29.92 in1013.2 mb 0.00 in0.0 mm 0.00 in/hr0.0 mm/hr 0.05 in1.3 mm
03:40 PM 71.2°F21.8°C 62.9°F17.2°C 75% 4.9 mph ENE7.9 kmh ENE 10.0 mph16.1 kmh 29.92 in1013.2 mb 0.00 in0.0 mm 0.00 in/hr0.0 mm/hr 0.05 in1.3 mm
03:50 PM 70.7°F21.5°C 62.0°F16.7°C 74% 8.5 mph E13.7 kmh E 10.0 mph16.1 kmh 29.92 in1013.2 mb 0.00 in0.0 mm 0.00 in/hr0.0 mm/hr 0.05 in1.3 mm
04:00 PM 70.5°F21.4°C 61.8°F16.6°C 74% 6.3 mph ENE10.1 kmh ENE 12.0 mph19.3 kmh 29.92 in1013.2 mb 0.00 in0.0 mm 0.00 in/hr0.0 mm/hr 0.05 in1.3 mm
04:10 PM 69.8°F21.0°C 61.9°F16.6°C 76% 9.9 mph NE15.9 kmh NE 14.0 mph22.5 kmh 29.92 in1013.2 mb 0.00 in0.0 mm 0.00 in/hr0.0 mm/hr 0.05 in1.3 mm
04:20 PM 69.6°F20.9°C 62.1°F16.7°C 77% 6.2 mph E10.0 kmh E 12.0 mph19.3 kmh 29.92 in1013.2 mb 0.00 in0.0 mm 0.00 in/hr0.0 mm/hr 0.05 in1.3 mm
04:30 PM 69.8°F21.0°C 62.2°F16.8°C 77% 6.2 mph ENE10.0 kmh ENE 9.0 mph14.5 kmh 29.93 in1013.5 mb 0.00 in0.0 mm 0.00 in/hr0.0 mm/hr 0.05 in1.3 mm
04:40 PM 69.1°F20.6°C 61.6°F16.4°C 77% 6.8 mph NE10.9 kmh NE 8.0 mph12.9 kmh 29.93 in1013.5 mb 0.00 in0.0 mm 0.00 in/hr0.0 mm/hr 0.05 in1.3 mm
04:50 PM 68.0°F20.0°C 62.0°F16.7°C 81% 5.2 mph ENE8.4 kmh ENE 11.0 mph17.7 kmh 29.93 in1013.5 mb 0.00 in0.0 mm 0.00 in/hr0.0 mm/hr 0.05 in1.3 mm
05:00 PM 67.4°F19.7°C 61.7°F16.5°C 82% 10.2 mph ENE16.4 kmh ENE 13.0 mph20.9 kmh 29.93 in1013.5 mb 0.00 in0.0 mm 0.00 in/hr0.0 mm/hr 0.05 in1.3 mm
05:10 PM 67.2°F19.6°C 61.5°F16.4°C 82% 6.6 mph ENE10.6 kmh ENE 10.0 mph16.1 kmh 29.94 in1013.9 mb 0.00 in0.0 mm 0.00 in/hr0.0 mm/hr 0.05 in1.3 mm
05:20 PM 66.7°F19.3°C 61.4°F16.3°C 83% 8.5 mph NE13.7 kmh NE 11.0 mph17.7 kmh 29.94 in1013.9 mb 0.00 in0.0 mm 0.00 in/hr0.0 mm/hr 0.05 in1.3 mm
05:30 PM 66.2°F19.0°C 61.6°F16.4°C 85% 6.8 mph NE10.9 kmh NE 11.0 mph17.7 kmh 29.95 in1014.2 mb 0.00 in0.0 mm 0.00 in/hr0.0 mm/hr 0.05 in1.3 mm
05:40 PM 65.8°F18.8°C 61.5°F16.4°C 86% 6.3 mph E10.1 kmh E 8.0 mph12.9 kmh 29.95 in1014.2 mb 0.00 in0.0 mm 0.00 in/hr0.0 mm/hr 0.05 in1.3 mm
05:50 PM 65.2°F18.4°C 61.5°F16.4°C 88% 3.7 mph ENE6.0 kmh ENE 10.0 mph16.1 kmh 29.95 in1014.2 mb 0.00 in0.0 mm 0.00 in/hr0.0 mm/hr 0.05 in1.3 mm
06:00 PM 64.5°F18.1°C 60.9°F16.1°C 88% 6.7 mph ENE10.8 kmh ENE 10.0 mph16.1 kmh 29.96 in1014.6 mb 0.00 in0.0 mm 0.00 in/hr0.0 mm/hr 0.05 in1.3 mm
06:10 PM 64.1°F17.8°C 60.8°F16.0°C 89% 7.6 mph E12.2 kmh E 10.0 mph16.1 kmh 29.96 in1014.6 mb 0.00 in0.0 mm 0.00 in/hr0.0 mm/hr 0.05 in1.3 mm
06:20 PM 63.9°F17.7°C 60.6°F15.9°C 89% 5.1 mph ENE8.2 kmh ENE 5.0 mph8.0 kmh 29.96 in1014.6 mb 0.00 in0.0 mm 0.00 in/hr0.0 mm/hr 0.05 in1.3 mm
06:30 PM 63.7°F17.6°C 60.4°F15.8°C 89% 5.2 mph E8.4 kmh E 13.0 mph20.9 kmh 29.96 in1014.6 mb 0.00 in0.0 mm 0.00 in/hr0.0 mm/hr 0.05 in1.3 mm
06:40 PM 63.6°F17.6°C 60.3°F15.7°C 89% 5.2 mph E8.4 kmh E 11.0 mph17.7 kmh 29.96 in1014.6 mb 0.00 in0.0 mm 0.00 in/hr0.0 mm/hr 0.05 in1.3 mm
06:50 PM 63.8°F17.7°C 60.5°F15.8°C 89% 2.2 mph ENE3.5 kmh ENE 7.0 mph11.3 kmh 29.97 in1014.9 mb 0.00 in0.0 mm 0.00 in/hr0.0 mm/hr 0.05 in1.3 mm
07:00 PM 63.9°F17.7°C 60.6°F15.9°C 89% 3.7 mph ENE6.0 kmh ENE 15.0 mph24.1 kmh 29.97 in1014.9 mb 0.00 in0.0 mm 0.00 in/hr0.0 mm/hr 0.05 in1.3 mm
07:10 PM 63.8°F17.7°C 60.5°F15.8°C 89% 8.1 mph ENE13.0 kmh ENE 11.0 mph17.7 kmh 29.98 in1015.2 mb 0.00 in0.0 mm 0.00 in/hr0.0 mm/hr 0.05 in1.3 mm
07:20 PM 63.8°F17.7°C 60.5°F15.8°C 89% 5.1 mph E8.2 kmh E 7.0 mph11.3 kmh 29.98 in1015.2 mb 0.00 in0.0 mm 0.00 in/hr0.0 mm/hr 0.05 in1.3 mm
07:30 PM 63.8°F17.7°C 60.2°F15.7°C 88% 6.5 mph ENE10.5 kmh ENE 11.0 mph17.7 kmh 29.99 in1015.6 mb 0.00 in0.0 mm 0.00 in/hr0.0 mm/hr 0.05 in1.3 mm
07:40 PM 63.9°F17.7°C 60.3°F15.7°C 88% 4.9 mph ENE7.9 kmh ENE 13.0 mph20.9 kmh 29.99 in1015.6 mb 0.00 in0.0 mm 0.00 in/hr0.0 mm/hr 0.05 in1.3 mm
07:50 PM 63.8°F17.7°C 60.2°F15.7°C 88% 7.0 mph ENE11.3 kmh ENE 11.0 mph17.7 kmh 29.99 in1015.6 mb 0.00 in0.0 mm 0.00 in/hr0.0 mm/hr 0.05 in1.3 mm
08:00 PM 63.8°F17.7°C 60.2°F15.7°C 88% 3.8 mph E6.1 kmh E 7.0 mph11.3 kmh 30.00 in1015.9 mb 0.00 in0.0 mm 0.00 in/hr0.0 mm/hr 0.05 in1.3 mm
08:10 PM 63.9°F17.7°C 60.0°F15.6°C 87% 5.4 mph ENE8.7 kmh ENE 8.0 mph12.9 kmh 30.00 in1015.9 mb 0.00 in0.0 mm 0.00 in/hr0.0 mm/hr 0.05 in1.3 mm
08:20 PM 64.0°F17.8°C 60.1°F15.6°C 87% 4.7 mph E7.6 kmh E 10.0 mph16.1 kmh 30.00 in1015.9 mb 0.00 in0.0 mm 0.00 in/hr0.0 mm/hr 0.05 in1.3 mm
08:30 PM 63.8°F17.7°C 59.9°F15.5°C 87% 5.9 mph E9.5 kmh E 10.0 mph16.1 kmh 30.00 in1015.9 mb 0.00 in0.0 mm 0.00 in/hr0.0 mm/hr 0.05 in1.3 mm
08:40 PM 63.8°F17.7°C 59.5°F15.3°C 86% 4.4 mph E7.1 kmh E 7.0 mph11.3 kmh 30.00 in1015.9 mb 0.00 in0.0 mm 0.00 in/hr0.0 mm/hr 0.05 in1.3 mm
08:50 PM 63.8°F17.7°C 59.5°F15.3°C 86% 4.5 mph E7.2 kmh E 9.0 mph14.5 kmh 30.00 in1015.9 mb 0.00 in0.0 mm 0.00 in/hr0.0 mm/hr 0.05 in1.3 mm
09:00 PM 63.8°F17.7°C 59.6°F15.3°C 86% 4.7 mph NE7.6 kmh NE 13.0 mph20.9 kmh 30.00 in1015.9 mb 0.00 in0.0 mm 0.00 in/hr0.0 mm/hr 0.05 in1.3 mm
09:10 PM 63.9°F17.7°C 59.6°F15.3°C 86% 5.1 mph ENE8.2 kmh ENE 8.0 mph12.9 kmh 30.00 in1015.9 mb 0.00 in0.0 mm 0.00 in/hr0.0 mm/hr 0.05 in1.3 mm
09:20 PM 64.0°F17.8°C 59.7°F15.4°C 86% 7.7 mph E12.4 kmh E 11.0 mph17.7 kmh 30.00 in1015.9 mb 0.00 in0.0 mm 0.00 in/hr0.0 mm/hr 0.05 in1.3 mm
09:30 PM 64.2°F17.9°C 59.9°F15.5°C 86% 5.4 mph E8.7 kmh E 7.0 mph11.3 kmh 30.00 in1015.9 mb 0.00 in0.0 mm 0.00 in/hr0.0 mm/hr 0.05 in1.3 mm
09:40 PM 64.2°F17.9°C 59.9°F15.5°C 86% 5.7 mph E9.2 kmh E 10.0 mph16.1 kmh 30.00 in1015.9 mb 0.00 in0.0 mm 0.00 in/hr0.0 mm/hr 0.05 in1.3 mm
09:50 PM 64.3°F17.9°C 59.7°F15.4°C 85% 5.6 mph ENE9.0 kmh ENE 8.0 mph12.9 kmh 30.00 in1015.9 mb 0.00 in0.0 mm 0.00 in/hr0.0 mm/hr 0.05 in1.3 mm
10:00 PM 64.1°F17.8°C 59.8°F15.4°C 86% 9.0 mph E14.5 kmh E 11.0 mph17.7 kmh 30.00 in1015.9 mb 0.00 in0.0 mm 0.00 in/hr0.0 mm/hr 0.05 in1.3 mm
10:10 PM 64.3°F17.9°C 60.0°F15.6°C 86% 8.5 mph E13.7 kmh E 12.0 mph19.3 kmh 30.00 in1015.9 mb 0.00 in0.0 mm 0.00 in/hr0.0 mm/hr 0.05 in1.3 mm
10:20 PM 64.3°F17.9°C 60.0°F15.6°C 86% 5.9 mph E9.5 kmh E 9.0 mph14.5 kmh 30.00 in1015.9 mb 0.00 in0.0 mm 0.00 in/hr0.0 mm/hr 0.05 in1.3 mm
10:30 PM 64.4°F18.0°C 59.8°F15.4°C 85% 5.8 mph ENE9.3 kmh ENE 9.0 mph14.5 kmh 30.00 in1015.9 mb 0.00 in0.0 mm 0.00 in/hr0.0 mm/hr 0.05 in1.3 mm
10:40 PM 64.3°F17.9°C 60.0°F15.6°C 86% 5.7 mph ENE9.2 kmh ENE 8.0 mph12.9 kmh 30.00 in1015.9 mb 0.00 in0.0 mm 0.00 in/hr0.0 mm/hr 0.05 in1.3 mm
10:50 PM 64.3°F17.9°C 60.0°F15.6°C 86% 7.7 mph ENE12.4 kmh ENE 11.0 mph17.7 kmh 30.00 in1015.9 mb 0.00 in0.0 mm 0.00 in/hr0.0 mm/hr 0.05 in1.3 mm
11:00 PM 64.3°F17.9°C 60.3°F15.7°C 87% 5.3 mph ENE8.5 kmh ENE 8.0 mph12.9 kmh 30.00 in1015.9 mb 0.00 in0.0 mm 0.00 in/hr0.0 mm/hr 0.05 in1.3 mm
11:20 PM 63.8°F17.7°C 60.8°F16.0°C 90% 6.1 mph ENE9.8 kmh ENE 10.0 mph16.1 kmh 30.00 in1015.9 mb 0.00 in0.0 mm 0.00 in/hr0.0 mm/hr 0.05 in1.3 mm
11:30 PM 63.6°F17.6°C 61.2°F16.2°C 92% 3.4 mph ENE5.5 kmh ENE 6.0 mph9.7 kmh 30.00 in1015.9 mb 0.00 in0.0 mm 0.00 in/hr0.0 mm/hr 0.05 in1.3 mm
11:40 PM 63.5°F17.5°C 61.1°F16.2°C 92% 5.9 mph NE9.5 kmh NE 10.0 mph16.1 kmh 30.00 in1015.9 mb 0.00 in0.0 mm 0.00 in/hr0.0 mm/hr 0.05 in1.3 mm
11:50 PM 63.4°F17.4°C 61.3°F16.3°C 93% 5.6 mph NE9.0 kmh NE 8.0 mph12.9 kmh 30.00 in1015.9 mb 0.00 in0.0 mm 0.00 in/hr0.0 mm/hr 0.05 in1.3 mm